Dati Storici

Data ora Umidita' aria (%) Temperatura aria (°C) Rad globale (W/m²) Gonioanemometro (°) Tacoanemometro (m/s) Pioggia (mm)
29-06-2020 12:10 56.5 % 29.829 116.838 3.362 0 0
29-06-2020 12:00 56.6 % 29.578 211.001 1.402 0 0
29-06-2020 11:50 56.9 % 30.863 230.579 0.5 0 0
29-06-2020 11:40 62.2 % 29.687 206.33 0.636 0 0
29-06-2020 11:30 60.8 % 29.557 109.961 1.299 0 0
29-06-2020 11:20 56.6 % 30.097 238.046 1.269 0 0
29-06-2020 11:10 61.8 % 28.951 162.55 1.735 0 0
29-06-2020 11:00 59.6 % 30.702 103.576 0.601 0 0
29-06-2020 10:50 60.8 % 30.594 111.353 0.437 0 0
29-06-2020 10:40 61.2 % 30.536 344.562 1.069 0 0
29-06-2020 10:30 61.6 % 30.247 83.921 -0.062 0 0
29-06-2020 10:20 61.5 % 29.648 46.595 1.066 0 0
29-06-2020 10:10 62.3 % 30.285 333.366 1.167 0 0
29-06-2020 10:00 63.5 % 29.57 291.845 -0.041 0 0
29-06-2020 09:50 65.1 % 28.909 206.385 0.23 0 0
29-06-2020 09:40 64.2 % 30.191 96.288 0.297 0 0
29-06-2020 09:30 67.4 % 28.24 6.107 -0.05 0 0
29-06-2020 09:20 69.2 % 28.581 57.81 0.9 0 0
29-06-2020 09:10 70.4 % 27.945 11.104 1.109 0 0
29-06-2020 09:00 68.7 % 28.588 277.032 0.411 0 0

I dati sono presentati in modo automatico a scopo informativo. In seguito a verifica i dati possono subire modifiche o essere invalidati e non riportati negli archivi definitivi.